Time;durP1;ratioP1;P1;durP2;ratioP2;P2;SDS_P1;SDS_P2;PMS_P1;PMS_P2;Temp;Humidity;BMP_temperature;BMP_pressure;BME280_temperature;BME280_humidity;BME280_pressure;Samples;Min_cycle;Max_cycle;Signal;HPM_P1;HPM_P2
2022/04/10 00:00:49;;;;;;;7.30;4.10;;;5.90;99.90;;;;;;5089488;28;20028;-82
2022/04/10 00:03:15;;;;;;;9.23;3.92;;;5.90;99.90;;;;;;5090502;28;20012;-82
2022/04/10 00:05:40;;;;;;;6.88;3.33;;;5.80;99.90;;;;;;5089290;28;20546;-82
2022/04/10 00:08:06;;;;;;;7.00;3.20;;;5.80;99.90;;;;;;5088185;28;20444;-82
2022/04/10 00:10:32;;;;;;;6.50;3.78;;;5.60;99.90;;;;;;5083756;28;20074;-82
2022/04/10 00:12:58;;;;;;;7.85;4.00;;;5.50;99.90;;;;;;5088118;28;20466;-82
2022/04/10 00:15:24;;;;;;;11.45;4.28;;;5.40;99.90;;;;;;5090849;28;20386;-82
2022/04/10 00:17:49;;;;;;;6.93;3.30;;;5.60;99.90;;;;;;5077347;28;20127;-82
2022/04/10 00:20:15;;;;;;;6.60;3.53;;;5.70;99.90;;;;;;5081196;28;20024;-82
2022/04/10 00:22:46;;;;;;;8.70;4.22;;;5.60;99.90;;;;;;5089104;28;20478;-81
2022/04/10 00:25:14;;;;;;;6.85;3.83;;;5.60;99.90;;;;;;5073549;28;20107;-81
2022/04/10 00:27:40;;;;;;;6.97;4.00;;;5.50;99.90;;;;;;5089154;28;20043;-81
2022/04/10 00:30:08;;;;;;;7.28;3.72;;;5.60;99.90;;;;;;5087600;28;20118;-82
2022/04/10 00:32:33;;;;;;;6.72;3.53;;;5.60;99.90;;;;;;5088720;28;20028;-81
2022/04/10 00:34:59;;;;;;;8.98;3.53;;;5.50;99.90;;;;;;5084558;28;20039;-81
2022/04/10 00:37:25;;;;;;;6.70;3.20;;;5.40;99.90;;;;;;5087936;28;20036;-81
2022/04/10 00:39:51;;;;;;;4.43;3.03;;;5.50;99.90;;;;;;5071393;28;20044;-82
2022/04/10 00:42:17;;;;;;;6.30;3.38;;;5.60;99.90;;;;;;5090576;28;20117;-82
2022/04/10 00:44:43;;;;;;;5.03;3.00;;;5.50;99.90;;;;;;5080162;28;20032;-82
2022/04/10 00:47:10;;;;;;;5.88;2.97;;;5.40;99.90;;;;;;5080126;28;20080;-80
2022/04/10 00:49:36;;;;;;;5.72;3.55;;;5.40;99.90;;;;;;5088984;28;20093;-82
2022/04/10 00:52:06;;;;;;;4.95;3.05;;;5.40;99.90;;;;;;5088863;28;20040;-81
2022/04/10 00:54:34;;;;;;;3.78;3.08;;;5.40;99.90;;;;;;5090445;28;20122;-81
2022/04/10 00:57:01;;;;;;;7.38;3.95;;;5.50;99.90;;;;;;5088972;28;20042;-82
2022/04/10 00:59:28;;;;;;;6.45;3.85;;;5.50;99.90;;;;;;5088342;28;20051;-82
2022/04/10 01:01:54;;;;;;;5.78;3.28;;;5.50;99.90;;;;;;5079983;28;20024;-82
2022/04/10 01:04:20;;;;;;;6.20;3.05;;;5.40;99.90;;;;;;5087272;28;20063;-82
2022/04/10 01:06:54;;;;;;;5.65;3.42;;;5.40;99.90;;;;;;5090647;28;20036;-82
2022/04/10 01:09:20;;;;;;;5.85;3.10;;;5.40;99.90;;;;;;5094204;28;20039;-82
2022/04/10 01:11:46;;;;;;;5.82;3.13;;;5.30;99.90;;;;;;5084616;28;20028;-82
2022/04/10 01:14:13;;;;;;;6.13;3.70;;;5.20;99.90;;;;;;5091094;28;20085;-82
2022/04/10 01:16:39;;;;;;;5.93;3.22;;;4.90;99.90;;;;;;5086750;28;20070;-82
2022/04/10 01:19:05;;;;;;;5.40;3.55;;;4.80;99.90;;;;;;5072638;28;20227;-82
2022/04/10 01:21:33;;;;;;;6.40;3.50;;;4.90;99.90;;;;;;5094187;28;20024;-82
2022/04/10 01:23:59;;;;;;;6.93;3.83;;;5.00;99.90;;;;;;5091734;28;20016;-82
2022/04/10 01:26:27;;;;;;;6.70;3.70;;;5.00;99.90;;;;;;5091846;28;20024;-82
2022/04/10 01:28:57;;;;;;;6.47;3.90;;;5.10;99.90;;;;;;5086738;28;20057;-82
2022/04/10 01:31:23;;;;;;;7.35;4.63;;;5.10;99.90;;;;;;5077313;28;20062;-82
2022/04/10 01:33:49;;;;;;;7.07;3.63;;;5.10;99.90;;;;;;5091638;28;20048;-82
2022/04/10 01:36:16;;;;;;;8.65;4.28;;;4.90;99.90;;;;;;5093211;28;20090;-82
2022/04/10 01:38:43;;;;;;;5.95;4.00;;;4.70;99.90;;;;;;5082711;28;20079;-82
2022/04/10 01:41:16;;;;;;;7.35;3.58;;;4.70;99.90;;;;;;5084114;28;20020;-82
2022/04/10 01:43:49;;;;;;;5.20;3.50;;;4.70;99.90;;;;;;5087728;28;20016;-82
2022/04/10 01:46:15;;;;;;;6.03;3.63;;;4.50;99.90;;;;;;5076486;28;20039;-82
2022/04/10 01:48:41;;;;;;;6.65;4.18;;;4.50;99.90;;;;;;5092529;28;20028;-82
2022/04/10 01:51:08;;;;;;;6.68;3.80;;;4.50;99.90;;;;;;5092337;28;20024;-82
2022/04/10 01:53:35;;;;;;;6.80;3.90;;;4.60;99.90;;;;;;5083032;28;20085;-82
2022/04/10 01:56:04;;;;;;;4.93;3.25;;;4.60;99.90;;;;;;5090406;28;20063;-82
2022/04/10 01:58:31;;;;;;;5.05;3.30;;;4.60;99.90;;;;;;5091696;28;20122;-82
2022/04/10 02:00:56;;;;;;;5.97;3.40;;;4.50;99.90;;;;;;5089958;28;20020;-82
2022/04/10 02:03:22;;;;;;;6.03;3.25;;;4.50;99.90;;;;;;5086922;28;20100;-82
2022/04/10 02:05:48;;;;;;;4.75;3.55;;;4.60;99.90;;;;;;5082607;28;20028;-82
2022/04/10 02:08:14;;;;;;;5.40;3.30;;;4.50;99.90;;;;;;5090210;28;20027;-82
2022/04/10 02:10:40;;;;;;;6.07;3.67;;;4.50;99.90;;;;;;5088085;28;20024;-82
2022/04/10 02:13:09;;;;;;;8.60;3.90;;;4.50;99.90;;;;;;5088077;28;20129;-82
2022/04/10 02:15:36;;;;;;;5.40;3.25;;;4.50;99.90;;;;;;5088806;28;20020;-82
2022/04/10 02:18:02;;;;;;;5.70;2.95;;;4.20;99.90;;;;;;5072133;28;20058;-81
2022/04/10 02:20:28;;;;;;;6.85;3.58;;;4.10;99.90;;;;;;5086178;28;20024;-82
2022/04/10 02:22:54;;;;;;;7.10;4.28;;;4.10;99.90;;;;;;5086814;28;20081;-82
2022/04/10 02:25:20;;;;;;;5.15;3.33;;;4.20;99.90;;;;;;5088888;28;20119;-82
2022/04/10 02:27:46;;;;;;;6.15;3.42;;;4.00;99.90;;;;;;5073996;28;20020;-82
2022/04/10 02:30:12;;;;;;;5.55;3.55;;;4.10;99.90;;;;;;5084641;28;20495;-82
2022/04/10 02:32:39;;;;;;;5.25;3.58;;;3.90;99.90;;;;;;5088574;28;20072;-82
2022/04/10 02:35:06;;;;;;;6.53;3.45;;;4.10;99.90;;;;;;5090933;28;20059;-82
2022/04/10 02:37:31;;;;;;;5.85;3.75;;;3.80;99.90;;;;;;5090995;28;20023;-82
2022/04/10 02:39:57;;;;;;;8.88;3.92;;;3.90;99.90;;;;;;5074725;28;20033;-82
2022/04/10 02:42:23;;;;;;;8.48;4.18;;;3.60;99.90;;;;;;5077470;28;20017;-82
2022/04/10 02:44:48;;;;;;;4.68;3.25;;;3.80;99.90;;;;;;5086510;28;20111;-82
2022/04/10 02:47:14;;;;;;;5.07;3.33;;;3.90;99.90;;;;;;5082273;28;20409;-82
2022/04/10 02:49:40;;;;;;;4.57;3.45;;;3.80;99.90;;;;;;5082130;28;20039;-82
2022/04/10 02:52:05;;;;;;;6.57;3.70;;;3.80;99.90;;;;;;5090482;28;20031;-82
2022/04/10 02:54:31;;;;;;;6.80;3.13;;;3.90;99.90;;;;;;5091682;28;20028;-82
2022/04/10 02:56:57;;;;;;;6.13;3.92;;;3.90;99.90;;;;;;5089201;28;20520;-82
2022/04/10 02:59:22;;;;;;;5.22;3.05;;;4.00;99.90;;;;;;5090247;28;20028;-82
2022/04/10 03:01:50;;;;;;;6.45;3.83;;;4.00;99.90;;;;;;5088421;28;20024;-82
2022/04/10 03:04:16;;;;;;;5.30;3.35;;;4.00;99.90;;;;;;5090280;28;20047;-82
2022/04/10 03:06:42;;;;;;;5.80;3.13;;;4.00;99.90;;;;;;5090728;28;20161;-82
2022/04/10 03:09:08;;;;;;;6.65;3.35;;;4.00;99.90;;;;;;5091327;28;20095;-82
2022/04/10 03:11:34;;;;;;;7.68;3.40;;;3.90;99.90;;;;;;5083223;28;20530;-82
2022/04/10 03:14:00;;;;;;;6.55;3.42;;;3.90;99.90;;;;;;5072460;28;20024;-82
2022/04/10 03:16:26;;;;;;;5.65;3.22;;;4.00;99.90;;;;;;5088377;28;20115;-82
2022/04/10 03:18:51;;;;;;;9.38;3.53;;;4.00;99.90;;;;;;5070334;28;20024;-82
2022/04/10 03:21:18;;;;;;;5.45;3.17;;;3.90;99.90;;;;;;5084618;28;20027;-82
2022/04/10 03:23:44;;;;;;;7.60;3.45;;;3.80;99.90;;;;;;5081269;28;20107;-82
2022/04/10 03:26:10;;;;;;;5.10;3.28;;;3.70;99.90;;;;;;5089919;28;20053;-82
2022/04/10 03:28:36;;;;;;;5.25;3.20;;;3.80;99.90;;;;;;5087445;28;20096;-81
2022/04/10 03:31:02;;;;;;;5.07;3.60;;;3.90;99.90;;;;;;5088620;28;20497;-82
2022/04/10 03:33:28;;;;;;;6.18;3.70;;;3.90;99.90;;;;;;5091195;28;20505;-81
2022/04/10 03:35:54;;;;;;;5.93;3.30;;;4.00;99.90;;;;;;5089433;28;20035;-81
2022/04/10 03:38:20;;;;;;;5.18;2.90;;;3.90;99.90;;;;;;5088958;28;20031;-82
2022/04/10 03:40:46;;;;;;;5.55;2.78;;;3.80;99.90;;;;;;5083769;28;20020;-82
2022/04/10 03:43:12;;;;;;;5.93;2.95;;;3.90;99.90;;;;;;5088742;28;20074;-82
2022/04/10 03:45:39;;;;;;;5.60;3.45;;;3.80;99.90;;;;;;5091608;28;20047;-82
2022/04/10 03:48:08;;;;;;;5.03;3.20;;;3.90;99.90;;;;;;5087766;28;20063;-82
2022/04/10 03:50:35;;;;;;;5.45;2.72;;;3.90;99.90;;;;;;5081420;28;20558;-82
2022/04/10 03:53:01;;;;;;;5.50;3.15;;;3.80;99.90;;;;;;5089893;28;20024;-82
2022/04/10 03:55:27;;;;;;;5.10;3.08;;;3.70;99.90;;;;;;5088031;28;20047;-82
2022/04/10 03:57:53;;;;;;;4.50;2.67;;;3.70;99.90;;;;;;5073283;28;20448;-82
2022/04/10 04:00:19;;;;;;;4.95;3.03;;;3.70;99.90;;;;;;5090714;28;20024;-83
2022/04/10 04:02:45;;;;;;;7.13;3.58;;;3.60;99.90;;;;;;5089055;28;20039;-83
2022/04/10 04:05:11;;;;;;;5.15;3.42;;;3.60;99.90;;;;;;5088435;28;20048;-82
2022/04/10 04:07:38;;;;;;;5.50;3.05;;;3.60;99.90;;;;;;5089686;28;20025;-82
2022/04/10 04:10:06;;;;;;;4.60;2.90;;;3.60;99.90;;;;;;5085806;28;20032;-83
2022/04/10 04:12:33;;;;;;;4.47;3.08;;;3.60;99.90;;;;;;5070993;28;20029;-82
2022/04/10 04:14:59;;;;;;;6.18;3.13;;;3.60;99.90;;;;;;5086964;28;20103;-83
2022/04/10 04:17:25;;;;;;;3.72;2.80;;;3.50;99.90;;;;;;5075451;28;20497;-83
2022/04/10 04:19:51;;;;;;;5.05;2.95;;;3.30;99.90;;;;;;5068678;28;20494;-83
2022/04/10 04:22:17;;;;;;;5.47;3.13;;;3.40;99.90;;;;;;5069935;28;20521;-83
2022/04/10 04:24:43;;;;;;;9.88;4.28;;;3.40;99.90;;;;;;5086173;28;20020;-82
2022/04/10 04:27:09;;;;;;;7.00;3.33;;;3.40;99.90;;;;;;5090268;28;20481;-83
2022/04/10 04:29:35;;;;;;;5.63;3.42;;;3.50;99.90;;;;;;5080557;28;20041;-83
2022/04/10 04:32:02;;;;;;;6.22;3.38;;;3.50;99.90;;;;;;5088146;28;20028;-82
2022/04/10 04:34:27;;;;;;;4.50;3.28;;;3.50;99.90;;;;;;5089402;28;20047;-81
2022/04/10 04:36:53;;;;;;;5.35;3.15;;;3.40;99.90;;;;;;5089057;28;20497;-81
2022/04/10 04:39:19;;;;;;;5.38;3.35;;;3.40;99.90;;;;;;5090013;28;20024;-82
2022/04/10 04:41:45;;;;;;;4.68;2.90;;;3.50;99.90;;;;;;5091080;28;20024;-82
2022/04/10 04:44:11;;;;;;;3.85;2.97;;;3.40;99.90;;;;;;5091019;28;20012;-82
2022/04/10 04:46:37;;;;;;;3.97;2.97;;;3.30;99.90;;;;;;5085461;28;20099;-82
2022/04/10 04:49:03;;;;;;;7.47;3.17;;;3.10;99.90;;;;;;5091798;28;20128;-82
2022/04/10 04:51:29;;;;;;;5.03;2.85;;;3.20;99.90;;;;;;5094804;28;20096;-82
2022/04/10 04:53:55;;;;;;;4.38;3.05;;;3.20;99.90;;;;;;5092422;28;20067;-82
2022/04/10 04:56:21;;;;;;;6.63;3.30;;;3.20;99.90;;;;;;5092504;28;20079;-82
2022/04/10 04:58:50;;;;;;;3.75;2.58;;;3.10;99.90;;;;;;5092476;28;20511;-82
2022/04/10 05:01:16;;;;;;;4.20;2.90;;;3.00;99.90;;;;;;5092184;28;20020;-82
2022/04/10 05:03:41;;;;;;;4.50;3.10;;;3.10;99.90;;;;;;5093734;28;20020;-81
2022/04/10 05:06:07;;;;;;;5.50;3.40;;;2.90;99.90;;;;;;5093478;28;20082;-82
2022/04/10 05:08:33;;;;;;;6.22;3.95;;;2.80;99.90;;;;;;5089695;28;20028;-82
2022/04/10 05:11:00;;;;;;;3.95;2.80;;;2.70;99.90;;;;;;5092916;28;20030;-82
2022/04/10 05:13:26;;;;;;;5.65;3.22;;;2.80;99.90;;;;;;5092611;28;20063;-81
2022/04/10 05:15:52;;;;;;;5.68;3.00;;;2.90;99.90;;;;;;5092569;28;20031;-81
2022/04/10 05:18:19;;;;;;;4.97;3.05;;;2.70;99.90;;;;;;5076416;28;20036;-81
2022/04/10 05:20:45;;;;;;;5.68;3.20;;;2.70;99.90;;;;;;5088707;28;20198;-81
2022/04/10 05:23:15;;;;;;;5.00;2.83;;;2.80;99.90;;;;;;5091274;28;20020;-81
2022/04/10 05:25:41;;;;;;;4.30;2.60;;;2.90;99.90;;;;;;5092592;28;20493;-81
2022/04/10 05:28:06;;;;;;;3.78;2.50;;;2.80;99.90;;;;;;5074543;28;20036;-81
2022/04/10 05:30:32;;;;;;;3.65;2.30;;;2.60;99.90;;;;;;5093886;28;20097;-81
2022/04/10 05:32:58;;;;;;;4.88;2.92;;;2.70;99.90;;;;;;5091917;28;20023;-81
2022/04/10 05:35:23;;;;;;;6.72;3.08;;;2.90;99.90;;;;;;5089791;28;20038;-81
2022/04/10 05:37:49;;;;;;;4.88;2.75;;;3.00;99.90;;;;;;5091094;28;20497;-81
2022/04/10 05:40:16;;;;;;;4.85;2.83;;;3.00;99.90;;;;;;5090941;28;20028;-81
2022/04/10 05:42:45;;;;;;;5.07;2.97;;;3.00;99.90;;;;;;5093035;28;20073;-81
2022/04/10 05:45:11;;;;;;;4.13;2.83;;;3.00;99.90;;;;;;5092990;28;20097;-81
2022/04/10 05:47:41;;;;;;;4.57;2.50;;;3.10;99.90;;;;;;5078986;28;20024;-80
2022/04/10 05:50:10;;;;;;;4.35;2.40;;;3.20;99.90;;;;;;5080475;28;20024;-81
2022/04/10 05:52:41;;;;;;;4.72;2.70;;;3.30;99.90;;;;;;5091344;28;20107;-81
2022/04/10 05:55:12;;;;;;;4.43;2.58;;;3.40;99.90;;;;;;5089270;28;20102;-81
2022/04/10 05:57:38;;;;;;;3.78;2.40;;;3.40;99.90;;;;;;5093622;28;20019;-82
2022/04/10 06:00:06;;;;;;;5.53;2.40;;;3.50;99.90;;;;;;5090333;28;20028;-82
2022/04/10 06:02:32;;;;;;;3.83;2.40;;;3.60;99.90;;;;;;5091341;28;20103;-82
2022/04/10 06:04:58;;;;;;;2.70;2.25;;;3.50;99.90;;;;;;5091529;28;20016;-81
2022/04/10 06:07:24;;;;;;;3.85;2.28;;;3.70;99.90;;;;;;5089919;28;20035;-82
2022/04/10 06:09:50;;;;;;;2.70;2.50;;;3.70;99.90;;;;;;5091489;28;20024;-82
2022/04/10 06:12:15;;;;;;;2.92;2.20;;;3.90;99.90;;;;;;5092969;28;20032;-82
2022/04/10 06:14:41;;;;;;;3.20;2.38;;;4.20;99.90;;;;;;5089932;28;20028;-82
2022/04/10 06:17:07;;;;;;;4.05;2.25;;;5.00;99.90;;;;;;5087060;28;20455;-82
2022/04/10 06:19:34;;;;;;;3.58;2.28;;;5.70;99.90;;;;;;5090944;28;20481;-82
2022/04/10 06:21:59;;;;;;;3.83;2.40;;;5.70;99.90;;;;;;5072556;28;20504;-81
2022/04/10 06:24:27;;;;;;;4.85;2.75;;;5.60;99.90;;;;;;5076626;28;20029;-81
2022/04/10 06:26:53;;;;;;;4.80;2.80;;;6.60;99.90;;;;;;5088935;28;20060;-79
2022/04/10 06:29:19;;;;;;;1.58;1.45;;;7.50;99.90;;;;;;5082355;28;20035;-83
2022/04/10 06:31:45;;;;;;;5.18;2.67;;;7.70;99.90;;;;;;5085104;28;20024;-84
2022/04/10 06:34:10;;;;;;;3.65;2.20;;;7.50;99.90;;;;;;5077432;28;20078;-85
2022/04/10 06:36:36;;;;;;;5.43;2.92;;;7.60;99.90;;;;;;5073338;28;20459;-85
2022/04/10 06:39:02;;;;;;;3.35;2.10;;;7.20;99.90;;;;;;5090619;28;20069;-86
2022/04/10 06:41:28;;;;;;;6.63;2.42;;;8.50;99.90;;;;;;5081350;28;20033;-86
2022/04/10 06:43:53;;;;;;;3.53;2.25;;;8.60;99.90;;;;;;5072143;28;20020;-86
2022/04/10 06:46:19;;;;;;;5.32;2.65;;;8.10;99.90;;;;;;5082076;28;20028;-85
2022/04/10 06:48:45;;;;;;;5.00;2.53;;;7.30;99.90;;;;;;5090800;28;20504;-86
2022/04/10 06:51:10;;;;;;;3.67;2.47;;;7.70;99.90;;;;;;5085928;28;20036;-85
2022/04/10 06:53:36;;;;;;;3.55;2.40;;;8.80;99.90;;;;;;5081058;28;20107;-85
2022/04/10 06:56:02;;;;;;;2.58;2.33;;;9.70;99.70;;;;;;5081057;28;20044;-86
2022/04/10 06:58:27;;;;;;;3.03;2.33;;;10.50;98.10;;;;;;5078783;28;20024;-85
2022/04/10 07:00:54;;;;;;;4.75;2.22;;;11.20;96.30;;;;;;5064382;28;20403;-85
2022/04/10 07:03:19;;;;;;;3.63;2.22;;;11.80;95.30;;;;;;5070459;28;20021;-85
2022/04/10 07:05:45;;;;;;;3.70;2.15;;;13.10;94.30;;;;;;5082021;28;20029;-85
2022/04/10 07:08:11;;;;;;;4.13;2.10;;;13.70;93.30;;;;;;5075778;28;20032;-85
2022/04/10 07:10:39;;;;;;;3.45;1.80;;;13.70;92.30;;;;;;5074376;28;20027;-85
2022/04/10 07:13:05;;;;;;;4.03;2.45;;;15.90;90.90;;;;;;5082531;28;20388;-85
2022/04/10 07:15:31;;;;;;;4.72;2.30;;;16.70;89.30;;;;;;5082511;28;20039;-85
2022/04/10 07:17:58;;;;;;;3.67;1.60;;;18.10;85.60;;;;;;5080861;28;20020;-85
2022/04/10 07:20:25;;;;;;;4.10;2.05;;;18.50;83.10;;;;;;5073595;28;20517;-85
2022/04/10 07:25:35;;;;;;;2.63;2.00;;;17.30;82.80;;;;;;5081796;28;20085;-85
2022/04/10 07:28:01;;;;;;;4.13;2.20;;;17.20;85.10;;;;;;5083105;28;20036;-85
2022/04/10 07:30:27;;;;;;;3.03;1.92;;;17.10;84.60;;;;;;5088667;28;20119;-85
2022/04/10 07:32:57;;;;;;;3.67;2.00;;;16.30;88.40;;;;;;5086595;28;20558;-84
2022/04/10 07:35:24;;;;;;;2.47;2.13;;;15.50;87.30;;;;;;5085349;28;20119;-85
2022/04/10 07:37:51;;;;;;;3.45;1.65;;;14.30;88.30;;;;;;5085519;28;20493;-84
2022/04/10 07:40:19;;;;;;;2.85;1.70;;;14.00;90.40;;;;;;5074577;28;20036;-85
2022/04/10 07:42:45;;;;;;;1.95;1.60;;;14.50;90.70;;;;;;5076004;28;20051;-84
2022/04/10 07:47:59;;;;;;;2.15;1.63;;;14.20;90.40;;;;;;5074241;28;20085;-85
2022/04/10 07:50:25;;;;;;;3.20;1.88;;;14.40;90.60;;;;;;5075461;28;20108;-85
2022/04/10 07:52:52;;;;;;;3.50;1.67;;;14.50;90.60;;;;;;5076266;28;20115;-85
2022/04/10 07:55:17;;;;;;;5.68;2.05;;;14.70;89.00;;;;;;5074649;28;20543;-85
2022/04/10 07:57:43;;;;;;;3.45;1.25;;;14.50;86.20;;;;;;5080594;28;20024;-85
2022/04/10 08:00:09;;;;;;;1.23;1.00;;;14.20;86.90;;;;;;5090090;28;20020;-85
2022/04/10 08:02:37;;;;;;;1.98;1.13;;;14.00;89.10;;;;;;5080199;28;20032;-85
2022/04/10 08:05:03;;;;;;;2.67;0.90;;;14.50;86.90;;;;;;5086866;28;20062;-85
2022/04/10 08:07:29;;;;;;;2.25;1.13;;;14.90;85.90;;;;;;5087587;28;20031;-85
2022/04/10 08:09:55;;;;;;;2.75;1.00;;;14.80;83.00;;;;;;5087770;28;20460;-85
2022/04/10 08:12:20;;;;;;;2.10;0.80;;;15.20;85.90;;;;;;5084321;28;20036;-85
2022/04/10 08:14:48;;;;;;;2.95;0.80;;;15.00;83.80;;;;;;5076879;28;20031;-85
2022/04/10 08:17:14;;;;;;;1.48;0.80;;;15.20;78.90;;;;;;5075525;28;20059;-85
2022/04/10 08:19:40;;;;;;;2.78;1.27;;;14.50;80.30;;;;;;5081745;28;20059;-85
2022/04/10 08:22:05;;;;;;;3.28;0.98;;;15.10;80.80;;;;;;5086448;28;20059;-85
2022/04/10 08:24:31;;;;;;;3.58;1.02;;;14.50;78.50;;;;;;5089463;28;20050;-84
2022/04/10 08:26:57;;;;;;;2.10;0.80;;;14.60;78.30;;;;;;5087909;28;20085;-84
2022/04/10 08:29:22;;;;;;;3.20;1.05;;;15.10;79.10;;;;;;5079213;28;20556;-81
2022/04/10 08:31:48;;;;;;;4.10;1.10;;;14.80;78.50;;;;;;5088055;28;20035;-81
2022/04/10 08:34:14;;;;;;;2.25;1.10;;;14.40;80.10;;;;;;5080960;28;20510;-80
2022/04/10 08:36:40;;;;;;;4.80;1.08;;;14.50;77.00;;;;;;5072668;28;20024;-78
2022/04/10 08:39:06;;;;;;;3.08;1.00;;;14.30;79.30;;;;;;5086136;28;20028;-78
2022/04/10 08:41:36;;;;;;;1.13;0.85;;;15.50;80.40;;;;;;5088834;28;20027;-76
2022/04/10 08:44:03;;;;;;;0.95;0.70;;;16.10;78.80;;;;;;5075350;28;20025;-75
2022/04/10 08:46:29;;;;;;;4.57;1.52;;;16.10;75.70;;;;;;5088417;28;20059;-76
2022/04/10 08:48:57;;;;;;;2.83;1.25;;;16.10;77.00;;;;;;5087330;28;20031;-77
2022/04/10 08:51:25;;;;;;;1.45;0.65;;;16.20;76.40;;;;;;5087872;28;20059;-77
2022/04/10 08:53:54;;;;;;;2.65;0.85;;;16.20;76.70;;;;;;5080995;28;20039;-74
2022/04/10 08:56:22;;;;;;;3.70;1.50;;;15.60;75.10;;;;;;5079186;28;20049;-74
2022/04/10 08:58:48;;;;;;;4.15;0.95;;;15.80;75.40;;;;;;5077208;28;20043;-74
2022/04/10 09:01:19;;;;;;;3.92;1.25;;;15.80;76.10;;;;;;5087206;28;20020;-74
2022/04/10 09:03:49;;;;;;;1.60;0.90;;;16.80;75.30;;;;;;5071454;28;20028;-75
2022/04/10 09:06:15;;;;;;;2.03;1.08;;;16.60;74.50;;;;;;5069700;28;20025;-74
2022/04/10 09:08:42;;;;;;;1.38;0.68;;;16.30;73.20;;;;;;5076093;28;20537;-75
2022/04/10 09:11:09;;;;;;;2.22;0.70;;;15.50;74.00;;;;;;5078080;28;20167;-75
2022/04/10 09:13:37;;;;;;;1.30;0.80;;;16.10;75.00;;;;;;5079983;28;20564;-75
2022/04/10 09:16:14;;;;;;;2.70;0.90;;;15.90;74.30;;;;;;5069852;28;20074;-74
2022/04/10 09:18:51;;;;;;;0.80;0.63;;;16.30;73.90;;;;;;5070023;28;20047;-74
2022/04/10 09:21:22;;;;;;;2.85;0.98;;;16.90;74.30;;;;;;5082397;28;20035;-74
2022/04/10 09:24:09;;;;;;;1.50;0.82;;;16.80;74.90;;;;;;5079003;28;20032;-74
2022/04/10 09:26:47;;;;;;;2.72;1.15;;;17.60;74.50;;;;;;5080464;28;20031;-75
2022/04/10 09:29:14;;;;;;;1.95;1.08;;;17.60;73.30;;;;;;5079193;28;20040;-74
2022/04/10 09:31:41;;;;;;;2.10;0.95;;;18.20;74.10;;;;;;5078964;28;20024;-74
2022/04/10 09:34:09;;;;;;;3.25;1.00;;;17.40;72.30;;;;;;5082530;28;20588;-74
2022/04/10 09:36:37;;;;;;;2.63;1.30;;;17.30;72.10;;;;;;5076405;28;20075;-74
2022/04/10 09:39:06;;;;;;;3.20;1.10;;;17.90;73.30;;;;;;5087954;28;20021;-74
2022/04/10 09:41:32;;;;;;;4.95;1.80;;;16.40;71.70;;;;;;5080848;28;20029;-75
2022/04/10 09:44:14;;;;;;;4.13;1.45;;;15.90;74.80;;;;;;5077813;28;20024;-74
2022/04/10 09:46:40;;;;;;;2.20;1.15;;;16.80;74.50;;;;;;5079008;28;20020;-75
2022/04/10 09:49:17;;;;;;;1.80;1.02;;;17.80;74.00;;;;;;5078882;28;20166;-75
2022/04/10 09:51:59;;;;;;;3.78;1.50;;;18.00;72.70;;;;;;5074426;28;20028;-75
2022/04/10 09:54:25;;;;;;;2.28;1.10;;;18.20;75.50;;;;;;5078693;28;20032;-73
2022/04/10 09:56:54;;;;;;;2.15;0.80;;;17.90;71.90;;;;;;5075870;28;20029;-73
2022/04/10 09:59:26;;;;;;;2.28;0.82;;;17.60;74.40;;;;;;5083224;28;20027;-73
2022/04/10 10:01:53;;;;;;;3.55;1.17;;;17.70;75.60;;;;;;5080843;28;20024;-73
2022/04/10 10:04:19;;;;;;;2.38;1.10;;;17.90;74.30;;;;;;5087026;28;20017;-73
2022/04/10 10:06:46;;;;;;;4.97;1.48;;;18.30;72.90;;;;;;5081235;28;20040;-73
2022/04/10 10:09:12;;;;;;;3.05;1.38;;;17.40;72.10;;;;;;5088340;28;20032;-73
2022/04/10 10:11:38;;;;;;;6.03;1.20;;;17.10;73.50;;;;;;5088948;28;20032;-73
2022/04/10 10:14:04;;;;;;;3.33;1.17;;;17.00;72.70;;;;;;5083794;28;20173;-73
2022/04/10 10:16:31;;;;;;;3.03;1.20;;;17.40;73.30;;;;;;5077897;28;20115;-73
2022/04/10 10:18:59;;;;;;;2.13;0.88;;;17.60;76.10;;;;;;5080181;28;20029;-73
2022/04/10 10:21:26;;;;;;;1.33;1.02;;;18.20;75.20;;;;;;5084976;28;20525;-73
2022/04/10 10:23:53;;;;;;;2.28;1.00;;;17.20;71.60;;;;;;5080495;28;20104;-73
2022/04/10 10:26:29;;;;;;;1.98;1.00;;;16.80;71.10;;;;;;5081673;28;20051;-73
2022/04/10 10:29:23;;;;;;;2.53;0.77;;;16.70;70.70;;;;;;5071594;28;20028;-73
2022/04/10 10:32:12;;;;;;;1.33;0.90;;;16.70;71.00;;;;;;5075728;28;20060;-73
2022/04/10 10:34:39;;;;;;;2.10;0.85;;;17.20;70.80;;;;;;5076406;28;20125;-73
2022/04/10 10:37:05;;;;;;;1.42;0.70;;;17.00;72.10;;;;;;5086560;28;20105;-73
2022/04/10 10:39:31;;;;;;;3.42;1.02;;;17.40;70.50;;;;;;5084082;28;20497;-73
2022/04/10 10:42:10;;;;;;;2.35;0.85;;;17.10;71.80;;;;;;5077693;28;20058;-72
2022/04/10 10:44:41;;;;;;;3.72;1.10;;;17.30;72.80;;;;;;5086091;28;20020;-74
2022/04/10 10:47:16;;;;;;;2.10;0.88;;;17.30;69.50;;;;;;5089954;28;20028;-74
2022/04/10 10:49:46;;;;;;;1.48;0.90;;;17.00;70.70;;;;;;5072760;28;20035;-74
2022/04/10 10:52:13;;;;;;;1.33;0.85;;;17.20;71.50;;;;;;5070659;28;20081;-74
2022/04/10 10:54:44;;;;;;;1.75;0.90;;;17.00;69.10;;;;;;5070855;28;20532;-74
2022/04/10 10:57:23;;;;;;;1.40;0.73;;;16.90;72.30;;;;;;5082360;28;20047;-74
2022/04/10 11:00:04;;;;;;;0.73;0.70;;;17.40;71.30;;;;;;5086041;28;20024;-74
2022/04/10 11:02:33;;;;;;;2.25;0.85;;;17.50;70.00;;;;;;5087778;28;20074;-74
2022/04/10 11:04:59;;;;;;;1.45;0.90;;;17.80;71.20;;;;;;5089913;28;20019;-74
2022/04/10 11:07:28;;;;;;;4.30;1.08;;;17.70;72.10;;;;;;5089775;28;20032;-74
2022/04/10 11:09:53;;;;;;;2.13;0.90;;;17.30;70.60;;;;;;5088687;28;20038;-75
2022/04/10 11:12:21;;;;;;;2.35;0.63;;;17.80;69.70;;;;;;5091362;28;20028;-74
2022/04/10 11:14:50;;;;;;;1.48;0.70;;;17.50;69.90;;;;;;5076523;28;20116;-75
2022/04/10 11:17:25;;;;;;;0.75;0.70;;;18.10;71.70;;;;;;5081853;28;20024;-75
2022/04/10 11:19:58;;;;;;;2.33;1.20;;;18.00;70.20;;;;;;5087430;28;20024;-74
2022/04/10 11:22:25;;;;;;;1.83;0.95;;;17.90;69.70;;;;;;5090043;28;20035;-74
2022/04/10 11:24:52;;;;;;;2.58;1.10;;;18.10;68.60;;;;;;5088474;28;20061;-73
2022/04/10 11:27:40;;;;;;;0.80;0.80;;;17.50;69.00;;;;;;5088272;28;20020;-73
2022/04/10 11:30:06;;;;;;;1.55;0.80;;;17.50;67.40;;;;;;5076771;28;20079;-74
2022/04/10 11:33:05;;;;;;;1.30;0.80;;;17.50;69.30;;;;;;5077732;28;20043;-73
2022/04/10 11:35:36;;;;;;;2.45;0.88;;;17.80;69.10;;;;;;5017286;28;20077;-74
2022/04/10 11:38:05;;;;;;;1.83;0.82;;;17.10;68.10;;;;;;5013547;28;20326;-74
2022/04/10 11:40:33;;;;;;;1.45;1.10;;;17.40;70.00;;;;;;5023493;28;20113;-74
2022/04/10 11:43:02;;;;;;;2.13;0.77;;;17.20;69.70;;;;;;5024943;28;20021;-74
2022/04/10 11:45:30;;;;;;;3.33;0.77;;;17.70;72.60;;;;;;5009566;28;20041;-74
2022/04/10 11:47:56;;;;;;;2.20;1.20;;;17.40;68.90;;;;;;5021370;28;20061;-73
2022/04/10 11:50:24;;;;;;;3.08;1.23;;;17.70;67.90;;;;;;4999983;28;20029;-74
2022/04/10 11:53:01;;;;;;;2.10;1.23;;;17.60;69.40;;;;;;5012684;28;20124;-73
2022/04/10 11:55:34;;;;;;;1.95;0.90;;;17.40;66.20;;;;;;5017744;28;20062;-74
2022/04/10 11:58:20;;;;;;;2.20;0.90;;;17.40;66.90;;;;;;5024855;28;20084;-73
2022/04/10 12:00:55;;;;;;;2.80;1.40;;;17.40;67.50;;;;;;5027034;28;20033;-74
2022/04/10 12:03:24;;;;;;;3.67;1.60;;;17.10;68.70;;;;;;5021209;28;20028;-74
2022/04/10 12:05:50;;;;;;;3.78;1.10;;;17.30;70.50;;;;;;5022866;28;20116;-74
2022/04/10 12:08:16;;;;;;;2.78;0.80;;;17.70;69.60;;;;;;5021385;28;20032;-75
2022/04/10 12:10:55;;;;;;;3.08;0.70;;;18.10;73.80;;;;;;5025896;28;20037;-75
2022/04/10 12:13:26;;;;;;;5.03;0.70;;;17.60;68.70;;;;;;5072002;28;20031;-75
2022/04/10 12:16:02;;;;;;;;;;;17.20;65.70;;;;;;5081430;28;20028;-74
2022/04/10 12:18:28;;;;;;;3.25;0.77;;;17.60;70.00;;;;;;5084089;28;19922;-75
2022/04/10 12:20:59;;;;;;;2.15;0.88;;;17.70;70.40;;;;;;5087540;28;20020;-75
2022/04/10 12:23:25;;;;;;;2.83;1.08;;;17.90;68.90;;;;;;5086220;28;20734;-75
2022/04/10 12:25:54;;;;;;;2.95;0.60;;;17.70;67.40;;;;;;5085843;28;20095;-75
2022/04/10 12:28:20;;;;;;;1.15;0.85;;;17.90;67.50;;;;;;5080516;28;20035;-75
2022/04/10 12:30:46;;;;;;;1.05;0.70;;;18.20;69.70;;;;;;5079549;28;20125;-75
2022/04/10 12:33:13;;;;;;;4.00;1.25;;;18.00;66.10;;;;;;5081348;28;20024;-75
2022/04/10 12:35:41;;;;;;;0.88;0.60;;;17.90;69.20;;;;;;5079651;28;20025;-75
2022/04/10 12:38:07;;;;;;;3.10;1.05;;;18.20;72.00;;;;;;5073111;28;20032;-75
2022/04/10 12:40:37;;;;;;;3.83;1.05;;;18.10;67.40;;;;;;5075615;28;20113;-75
2022/04/10 12:43:05;;;;;;;1.15;0.73;;;17.70;66.70;;;;;;5077371;28;20486;-75
2022/04/10 12:45:37;;;;;;;2.38;1.08;;;17.90;71.40;;;;;;5082496;28;20028;-75
2022/04/10 12:48:19;;;;;;;2.92;0.80;;;18.10;68.40;;;;;;5075826;28;20029;-75
2022/04/10 12:50:45;;;;;;;0.98;0.80;;;18.10;69.60;;;;;;5075121;28;20052;-75
2022/04/10 12:53:11;;;;;;;1.02;0.75;;;18.20;66.90;;;;;;5080972;28;20505;-74
2022/04/10 12:55:38;;;;;;;1.30;0.80;;;18.20;68.40;;;;;;5079850;28;20040;-75
2022/04/10 12:58:07;;;;;;;1.73;0.60;;;18.20;67.90;;;;;;5078820;28;20043;-75
2022/04/10 13:00:44;;;;;;;1.10;0.65;;;18.00;65.80;;;;;;5077413;28;20024;-75